Time,TemperatureF,DewpointF,PressureIn,WindDirection,WindDirectionDegrees,WindSpeedMPH,WindSpeedGustMPH,Humidity,HourlyPrecipIn,Conditions,Clouds,dailyrainin,SolarRadiationWatts/m^2,SoftwareType,DateUTC
2013-10-15 00:09:00,68.8,67.0,30.01,NW,318,10.0,16.0,95,0.01,,,0.00,0,weatherlink.com 1.10,2013-10-15 04:09:00,
2013-10-15 00:24:00,68.8,67.0,30.01,NNW,332,12.0,14.0,95,0.01,,,0.00,0,weatherlink.com 1.10,2013-10-15 04:24:00,
2013-10-15 00:39:00,68.9,68.0,30.00,NW,319,8.0,16.0,96,0.02,,,0.01,0,weatherlink.com 1.10,2013-10-15 04:39:00,
2013-10-15 00:54:00,68.9,68.0,29.99,WNW,294,10.0,15.0,96,0.01,,,0.01,0,weatherlink.com 1.10,2013-10-15 04:54:00,
2013-10-15 01:09:00,68.9,68.0,29.98,NW,313,5.0,15.0,96,0.01,,,0.01,0,weatherlink.com 1.10,2013-10-15 05:09:00,
2013-10-15 01:24:00,68.9,68.0,29.99,WNW,293,8.0,17.0,96,0.01,,,0.01,0,weatherlink.com 1.10,2013-10-15 05:24:00,
2013-10-15 01:39:00,69.1,68.0,29.98,WNW,294,9.0,23.0,96,0.00,,,0.01,0,weatherlink.com 1.10,2013-10-15 05:39:00,
2013-10-15 01:54:00,69.3,68.0,29.98,NW,324,6.0,11.0,96,0.00,,,0.01,0,weatherlink.com 1.10,2013-10-15 05:54:00,
2013-10-15 02:09:00,72.9,72.0,29.98,NNE,14,19.0,29.0,97,0.00,,,0.01,0,weatherlink.com 1.10,2013-10-15 06:09:00,
2013-10-15 02:24:00,74.0,72.0,29.96,NE,34,26.0,30.0,93,0.00,,,0.01,0,weatherlink.com 1.10,2013-10-15 06:24:00,
2013-10-15 02:39:00,74.7,72.0,29.96,NNE,24,25.0,31.0,91,0.00,,,0.01,0,weatherlink.com 1.10,2013-10-15 06:39:00,
2013-10-15 02:54:00,75.0,72.0,29.96,NNE,19,26.0,29.0,90,0.00,,,0.01,0,weatherlink.com 1.10,2013-10-15 06:54:00,
2013-10-15 03:09:00,75.2,72.0,29.96,NNE,26,21.0,27.0,90,0.00,,,0.01,0,weatherlink.com 1.10,2013-10-15 07:09:00,
2013-10-15 03:24:00,75.3,72.0,29.96,North,11,12.0,26.0,90,0.00,,,0.01,0,weatherlink.com 1.10,2013-10-15 07:24:00,
2013-10-15 03:40:00,74.6,72.0,29.95,North,5,16.0,28.0,91,0.18,,,0.19,0,weatherlink.com 1.10,2013-10-15 07:40:00,
2013-10-15 03:55:00,74.7,72.0,29.95,NNE,26,25.0,31.0,91,0.20,,,0.21,0,weatherlink.com 1.10,2013-10-15 07:55:00,
2013-10-15 04:10:00,75.0,72.0,29.95,NE,36,24.0,33.0,91,0.20,,,0.21,0,weatherlink.com 1.10,2013-10-15 08:10:00,
2013-10-15 04:25:00,74.8,72.0,29.95,NNE,21,28.0,33.0,91,0.20,,,0.21,0,weatherlink.com 1.10,2013-10-15 08:25:00,
2013-10-15 04:40:00,75.2,73.0,29.95,North,11,24.0,32.0,91,0.01,,,0.21,0,weatherlink.com 1.10,2013-10-15 08:40:00,
2013-10-15 04:55:00,75.1,72.0,29.94,NNE,24,30.0,32.0,90,0.00,,,0.21,0,weatherlink.com 1.10,2013-10-15 08:55:00,
2013-10-15 05:10:00,75.0,72.0,29.94,NE,38,31.0,33.0,90,0.00,,,0.21,0,weatherlink.com 1.10,2013-10-15 09:10:00,
2013-10-15 05:25:00,75.2,72.0,29.94,NNE,24,31.0,33.0,90,0.00,,,0.21,0,weatherlink.com 1.10,2013-10-15 09:25:00,
2013-10-15 05:40:00,75.1,72.0,29.94,NNE,24,24.0,31.0,90,0.00,,,0.21,0,weatherlink.com 1.10,2013-10-15 09:40:00,
2013-10-15 05:55:00,75.0,72.0,29.95,NNE,26,26.0,34.0,91,0.00,,,0.21,0,weatherlink.com 1.10,2013-10-15 09:55:00,
2013-10-15 06:10:00,74.9,72.0,29.95,NNE,13,27.0,33.0,91,0.00,,,0.21,0,weatherlink.com 1.10,2013-10-15 10:10:00,
2013-10-15 06:25:00,74.6,72.0,29.95,North,5,25.0,34.0,92,0.00,,,0.21,0,weatherlink.com 1.10,2013-10-15 10:25:00,
2013-10-15 06:40:00,74.4,72.0,29.95,North,360,20.0,33.0,92,0.00,,,0.21,0,weatherlink.com 1.10,2013-10-15 10:40:00,
2013-10-15 06:55:00,74.4,72.0,29.96,North,360,21.0,29.0,92,0.00,,,0.21,0,weatherlink.com 1.10,2013-10-15 10:55:00,
2013-10-15 07:10:00,74.6,72.0,29.96,NNE,17,28.0,33.0,91,0.00,,,0.21,0,weatherlink.com 1.10,2013-10-15 11:10:00,
2013-10-15 07:25:00,74.6,72.0,29.96,NE,36,25.0,31.0,92,0.00,,,0.21,0,weatherlink.com 1.10,2013-10-15 11:25:00,
2013-10-15 07:40:00,74.3,72.0,29.95,NNE,26,33.0,38.0,93,0.00,,,0.21,0,weatherlink.com 1.10,2013-10-15 11:40:00,
2013-10-15 07:55:00,74.0,72.0,29.96,NNE,16,28.0,36.0,93,0.00,,,0.21,5,weatherlink.com 1.10,2013-10-15 11:55:00,
2013-10-15 08:10:00,73.5,72.0,29.96,NNE,13,26.0,34.0,95,0.06,,,0.27,9,weatherlink.com 1.10,2013-10-15 12:10:00,
2013-10-15 08:25:00,73.3,72.0,29.96,NNE,12,31.0,37.0,95,0.16,,,0.37,33,weatherlink.com 1.10,2013-10-15 12:25:00,
2013-10-15 08:40:00,72.3,71.0,29.96,NNW,345,23.0,30.0,95,0.30,,,0.51,18,weatherlink.com 1.10,2013-10-15 12:40:00,
2013-10-15 08:55:00,72.7,71.0,29.95,NE,46,31.0,44.0,94,0.36,,,0.57,207,weatherlink.com 1.10,2013-10-15 12:55:00,
2013-10-15 09:10:00,73.3,72.0,29.97,NNE,27,36.0,39.0,95,0.29,,,0.57,35,weatherlink.com 1.10,2013-10-15 13:10:00,
2013-10-15 09:25:00,73.2,72.0,29.97,NNE,13,33.0,43.0,95,0.22,,,0.59,28,weatherlink.com 1.10,2013-10-15 13:25:00,
2013-10-15 09:40:00,73.4,72.0,29.98,NNE,21,26.0,39.0,96,0.08,,,0.59,174,weatherlink.com 1.10,2013-10-15 13:40:00,
2013-10-15 09:55:00,73.4,72.0,29.99,NE,47,28.0,35.0,96,0.05,,,0.62,47,weatherlink.com 1.10,2013-10-15 13:55:00,
2013-10-15 10:10:00,73.3,72.0,29.98,NNE,32,31.0,44.0,96,0.14,,,0.71,14,weatherlink.com 1.10,2013-10-15 14:10:00,
2013-10-15 10:25:00,73.5,72.0,29.97,NNE,32,36.0,46.0,95,0.14,,,0.73,74,weatherlink.com 1.10,2013-10-15 14:25:00,
2013-10-15 10:40:00,74.2,72.0,29.98,NE,36,31.0,42.0,93,0.14,,,0.73,188,weatherlink.com 1.10,2013-10-15 14:40:00,
2013-10-15 10:55:00,74.7,72.0,29.98,NE,39,32.0,42.0,92,0.11,,,0.73,323,weatherlink.com 1.10,2013-10-15 14:55:00,
2013-10-15 11:10:00,75.5,73.0,29.98,NE,46,33.0,38.0,91,0.02,,,0.73,513,weatherlink.com 1.10,2013-10-15 15:10:00,
2013-10-15 11:25:00,75.5,73.0,29.98,NE,38,28.0,36.0,90,0.00,,,0.73,301,weatherlink.com 1.10,2013-10-15 15:25:00,
2013-10-15 11:40:00,75.4,72.0,29.98,NE,37,27.0,36.0,90,0.00,,,0.73,171,weatherlink.com 1.10,2013-10-15 15:40:00,
2013-10-15 11:55:00,75.4,72.0,29.98,NE,51,28.0,37.0,89,0.00,,,0.73,213,weatherlink.com 1.10,2013-10-15 15:55:00,
2013-10-15 12:10:00,75.7,72.0,29.98,NE,40,30.0,33.0,89,0.00,,,0.73,267,weatherlink.com 1.10,2013-10-15 16:10:00,
2013-10-15 12:25:00,76.5,73.0,29.98,NE,39,30.0,35.0,88,0.00,,,0.73,355,weatherlink.com 1.10,2013-10-15 16:25:00,
2013-10-15 12:40:00,76.2,73.0,29.98,NNE,32,27.0,31.0,88,0.00,,,0.73,309,weatherlink.com 1.10,2013-10-15 16:40:00,
2013-10-15 12:55:00,76.3,73.0,29.98,NNE,30,29.0,32.0,88,0.00,,,0.73,318,weatherlink.com 1.10,2013-10-15 16:55:00,
2013-10-15 13:10:00,76.5,73.0,29.98,NNE,30,33.0,36.0,88,0.00,,,0.73,332,weatherlink.com 1.10,2013-10-15 17:10:00,
2013-10-15 13:25:00,76.5,72.0,29.97,NNE,25,26.0,32.0,87,0.00,,,0.73,309,weatherlink.com 1.10,2013-10-15 17:25:00,
2013-10-15 13:40:00,75.9,72.0,29.98,NNE,23,26.0,34.0,87,0.00,,,0.73,120,weatherlink.com 1.10,2013-10-15 17:40:00,
2013-10-15 13:55:00,75.4,72.0,29.97,NE,39,29.0,34.0,88,0.00,,,0.73,390,weatherlink.com 1.10,2013-10-15 17:55:00,
2013-10-15 14:10:00,75.0,71.0,29.97,NNE,20,31.0,35.0,88,0.00,,,0.73,105,weatherlink.com 1.10,2013-10-15 18:10:00,
2013-10-15 14:25:00,74.6,71.0,29.96,NE,35,28.0,36.0,89,0.00,,,0.73,158,weatherlink.com 1.10,2013-10-15 18:25:00,
2013-10-15 14:40:00,74.2,71.0,29.95,NNE,19,25.0,35.0,90,0.00,,,0.73,127,weatherlink.com 1.10,2013-10-15 18:40:00,
2013-10-15 14:55:00,74.2,72.0,29.95,NNE,26,28.0,32.0,91,0.00,,,0.73,137,weatherlink.com 1.10,2013-10-15 18:55:00,
2013-10-15 15:10:00,74.7,71.0,29.95,NNE,22,27.0,32.0,89,0.00,,,0.73,204,weatherlink.com 1.10,2013-10-15 19:10:00,
2013-10-15 15:25:00,74.8,71.0,29.95,NNE,29,32.0,32.0,89,0.00,,,0.73,202,weatherlink.com 1.10,2013-10-15 19:25:00,
2013-10-15 15:40:00,74.8,71.0,29.95,NNE,30,23.0,31.0,89,0.00,,,0.73,214,weatherlink.com 1.10,2013-10-15 19:40:00,
2013-10-15 15:55:00,75.0,72.0,29.94,NNE,29,28.0,31.0,89,0.00,,,0.73,176,weatherlink.com 1.10,2013-10-15 19:55:00,
2013-10-15 16:10:00,74.9,72.0,29.94,NNE,30,28.0,30.0,89,0.00,,,0.73,120,weatherlink.com 1.10,2013-10-15 20:10:00,
2013-10-15 16:25:00,74.9,72.0,29.95,NE,40,23.0,31.0,89,0.00,,,0.73,121,weatherlink.com 1.10,2013-10-15 20:25:00,
2013-10-15 16:40:00,74.9,72.0,29.95,NNE,33,24.0,29.0,89,0.00,,,0.73,120,weatherlink.com 1.10,2013-10-15 20:40:00,
2013-10-15 16:55:00,74.8,72.0,29.95,NNE,26,27.0,32.0,90,0.00,,,0.73,39,weatherlink.com 1.10,2013-10-15 20:55:00,
2013-10-15 17:10:00,74.6,71.0,29.95,NE,46,22.0,30.0,88,0.00,,,0.73,72,weatherlink.com 1.10,2013-10-15 21:10:00,
2013-10-15 17:25:00,74.7,71.0,29.96,NE,38,27.0,30.0,89,0.00,,,0.73,72,weatherlink.com 1.10,2013-10-15 21:25:00,
2013-10-15 17:40:00,74.6,71.0,29.95,NE,38,25.0,31.0,88,0.00,,,0.73,47,weatherlink.com 1.10,2013-10-15 21:40:00,
2013-10-15 17:55:00,74.4,71.0,29.95,NNE,31,23.0,30.0,89,0.00,,,0.73,54,weatherlink.com 1.10,2013-10-15 21:55:00,
2013-10-15 18:10:00,74.3,71.0,29.95,NE,36,27.0,31.0,89,0.00,,,0.73,23,weatherlink.com 1.10,2013-10-15 22:10:00,
2013-10-15 18:25:00,74.2,71.0,29.96,NE,40,23.0,30.0,90,0.00,,,0.73,12,weatherlink.com 1.10,2013-10-15 22:25:00,
2013-10-15 18:40:00,74.0,71.0,29.96,NNE,32,27.0,29.0,90,0.00,,,0.73,0,weatherlink.com 1.10,2013-10-15 22:40:00,
2013-10-15 18:55:00,73.9,71.0,29.96,NE,35,20.0,28.0,89,0.00,,,0.73,0,weatherlink.com 1.10,2013-10-15 22:55:00,
2013-10-15 19:10:00,73.9,71.0,29.96,NNE,32,22.0,28.0,90,0.00,,,0.73,0,weatherlink.com 1.10,2013-10-15 23:10:00,
2013-10-15 19:25:00,73.9,71.0,29.97,NNE,31,22.0,27.0,90,0.00,,,0.73,0,weatherlink.com 1.10,2013-10-15 23:25:00,
2013-10-15 19:40:00,73.5,71.0,29.97,NNE,21,25.0,29.0,90,0.00,,,0.73,0,weatherlink.com 1.10,2013-10-15 23:40:00,
2013-10-15 19:55:00,73.0,70.0,29.98,NNE,32,24.0,28.0,91,0.00,,,0.73,0,weatherlink.com 1.10,2013-10-15 23:55:00,
2013-10-15 20:10:00,72.8,70.0,29.98,North,5,20.0,27.0,92,0.00,,,0.73,0,weatherlink.com 1.10,2013-10-16 00:10:00,
2013-10-15 20:25:00,73.2,70.0,29.98,NNE,28,20.0,26.0,90,0.00,,,0.73,0,weatherlink.com 1.10,2013-10-16 00:25:00,
2013-10-15 20:40:00,73.5,71.0,29.98,NNE,31,25.0,27.0,90,0.00,,,0.73,0,weatherlink.com 1.10,2013-10-16 00:40:00,
2013-10-15 20:55:00,73.7,71.0,29.98,NNE,27,18.0,27.0,90,0.00,,,0.73,0,weatherlink.com 1.10,2013-10-16 00:55:00,
2013-10-15 21:10:00,73.8,71.0,29.98,NNE,26,20.0,26.0,90,0.00,,,0.73,0,weatherlink.com 1.10,2013-10-16 01:10:00,
2013-10-15 21:25:00,73.7,70.0,29.99,NNE,31,20.0,26.0,89,0.00,,,0.73,0,weatherlink.com 1.10,2013-10-16 01:25:00,
2013-10-15 21:40:00,73.7,70.0,29.99,NNE,15,18.0,26.0,89,0.00,,,0.73,0,weatherlink.com 1.10,2013-10-16 01:40:00,
2013-10-15 21:55:00,73.9,71.0,29.99,NE,35,23.0,25.0,89,0.00,,,0.73,0,weatherlink.com 1.10,2013-10-16 01:55:00,
2013-10-15 22:10:00,74.0,71.0,29.99,NNE,27,17.0,25.0,89,0.00,,,0.73,0,weatherlink.com 1.10,2013-10-16 02:10:00,
2013-10-15 22:25:00,74.0,71.0,30.00,NNE,28,23.0,25.0,89,0.00,,,0.73,0,weatherlink.com 1.10,2013-10-16 02:25:00,
2013-10-15 22:40:00,74.0,71.0,30.00,NNE,30,21.0,24.0,89,0.00,,,0.73,0,weatherlink.com 1.10,2013-10-16 02:40:00,
2013-10-15 22:55:00,74.1,71.0,30.00,NNE,24,25.0,25.0,89,0.00,,,0.73,0,weatherlink.com 1.10,2013-10-16 02:55:00,
2013-10-15 23:10:00,74.1,70.0,29.99,NNE,23,17.0,23.0,88,0.00,,,0.73,0,weatherlink.com 1.10,2013-10-16 03:10:00,
2013-10-15 23:25:00,74.2,71.0,29.99,NNE,21,18.0,24.0,88,0.00,,,0.73,0,weatherlink.com 1.10,2013-10-16 03:25:00,
2013-10-15 23:40:00,74.2,71.0,29.99,NNE,27,18.0,25.0,88,0.00,,,0.73,0,weatherlink.com 1.10,2013-10-16 03:40:00,
2013-10-15 23:55:00,74.2,71.0,29.99,NNE,17,21.0,24.0,89,0.00,,,0.73,0,weatherlink.com 1.10,2013-10-16 03:55:00,